createdAt,value
2017-07-03T00:00:24.989Z,97.47
2017-07-03T00:00:53.125Z,97.27
2017-07-03T00:01:21.245Z,97.37
2017-07-03T00:01:49.411Z,97.47
2017-07-03T00:02:17.532Z,97.47
2017-07-03T00:02:45.648Z,97.37
2017-07-03T00:03:13.702Z,97.37
2017-07-03T00:03:41.848Z,98.23
2017-07-03T00:04:09.881Z,97.56
2017-07-03T00:04:38.029Z,97.08
2017-07-03T00:05:06.180Z,97.47
2017-07-03T00:05:34.209Z,97.47
2017-07-03T00:06:02.341Z,97.47
2017-07-03T00:06:30.509Z,97.18
2017-07-03T00:06:58.563Z,97.37
2017-07-03T00:07:26.670Z,97.37
2017-07-03T00:07:54.712Z,97.27
2017-07-03T00:08:22.855Z,97.08
2017-07-03T00:08:50.990Z,97.56
2017-07-03T00:09:19.108Z,97.42
2017-07-03T00:09:47.269Z,97.71
2017-07-03T00:10:15.389Z,97.32
2017-07-03T00:10:43.503Z,97.37
2017-07-03T00:11:11.564Z,97.13
2017-07-03T00:11:39.615Z,97.03
2017-07-03T00:12:07.755Z,96.75
2017-07-03T00:12:35.899Z,96.84
2017-07-03T00:13:04.044Z,97.03
2017-07-03T00:13:32.085Z,96.66
2017-07-03T00:14:00.206Z,96.66
2017-07-03T00:14:28.263Z,96.94
2017-07-03T00:14:56.331Z,96.75
2017-07-03T00:15:24.391Z,96.94
2017-07-03T00:15:52.523Z,97.61
2017-07-03T00:16:20.658Z,96.94
2017-07-03T00:16:48.791Z,96.94
2017-07-03T00:17:16.920Z,96.94
2017-07-03T00:17:45.041Z,97.13
2017-07-03T00:18:13.171Z,97.42
2017-07-03T00:18:41.303Z,97.42
2017-07-03T00:19:09.425Z,96.84
2017-07-03T00:19:37.584Z,96.84
2017-07-03T00:20:05.739Z,96.94
2017-07-03T00:20:33.799Z,97.61
2017-07-03T00:21:01.947Z,97.71
2017-07-03T00:21:29.890Z,97.42
2017-07-03T00:21:58.006Z,96.56
2017-07-03T00:22:26.121Z,96.84
2017-07-03T00:22:55.014Z,97.03
2017-07-03T00:23:24.178Z,96.66
2017-07-03T00:23:52.691Z,96.94
2017-07-03T00:24:21.316Z,96.17
2017-07-03T00:24:49.921Z,96.66
2017-07-03T00:25:18.535Z,96.27
2017-07-03T00:25:47.159Z,96.66
2017-07-03T00:26:15.827Z,96.37
2017-07-03T00:26:44.386Z,96.37
2017-07-03T00:27:13.007Z,95.41
2017-07-03T00:27:41.614Z,96.27
2017-07-03T00:28:10.243Z,96.08
2017-07-03T00:28:38.857Z,96.17
2017-07-03T00:29:07.358Z,96.08
2017-07-03T00:29:35.877Z,96.17
2017-07-03T00:30:04.460Z,96.17
2017-07-03T00:30:33.072Z,95.41
2017-07-03T00:31:01.573Z,95.41
2017-07-03T00:31:31.247Z,94.74
2017-07-03T00:32:00.099Z,94.74
2017-07-03T00:32:29.119Z,94.51
2017-07-03T00:32:58.283Z,94.51
2017-07-03T00:33:26.933Z,94.36
2017-07-03T00:33:55.599Z,94.27
2017-07-03T00:34:24.185Z,94.74
2017-07-03T00:34:52.705Z,94.36
2017-07-03T00:35:21.362Z,94.17
2017-07-03T00:35:49.977Z,94.55
2017-07-03T00:36:18.591Z,94.27
2017-07-03T00:36:47.117Z,94.36
2017-07-03T00:37:15.626Z,94.36
2017-07-03T00:37:44.226Z,94.27
2017-07-03T00:38:12.845Z,94.17
2017-07-03T00:38:41.438Z,94.36
2017-07-03T00:39:10.050Z,94.07
2017-07-03T00:39:38.645Z,94.17
2017-07-03T00:40:07.270Z,94.55
2017-07-03T00:40:35.772Z,94.93
2017-07-03T00:41:04.395Z,95.03
2017-07-03T00:41:33.012Z,94.74
2017-07-03T00:42:01.639Z,94.65
2017-07-03T00:42:30.134Z,95.61
2017-07-03T00:42:58.764Z,95.51
2017-07-03T00:43:27.384Z,95.89
2017-07-03T00:43:56.015Z,96.08
2017-07-03T00:44:24.597Z,95.89
2017-07-03T00:44:53.221Z,95.61
2017-07-03T00:45:21.814Z,95.51
2017-07-03T00:45:50.417Z,95.79
2017-07-03T00:46:19.031Z,96.17
2017-07-03T00:46:47.537Z,96.27
2017-07-03T00:47:16.153Z,96.37
2017-07-03T00:47:44.736Z,95.89
2017-07-03T00:48:13.339Z,97.03
2017-07-03T00:48:41.948Z,96.94
2017-07-03T00:49:10.557Z,96.94
2017-07-03T00:49:39.070Z,96.94
2017-07-03T00:50:07.597Z,97.13
2017-07-03T00:50:36.221Z,97.42
2017-07-03T00:51:04.841Z,97.71
2017-07-03T00:51:33.432Z,97.89
2017-07-03T00:52:02.046Z,98.37
2017-07-03T00:52:30.656Z,98.37
2017-07-03T00:52:59.244Z,98.85
2017-07-03T00:53:27.832Z,98.57
2017-07-03T00:53:56.351Z,98.94
2017-07-03T00:54:24.972Z,99.23
2017-07-03T00:54:53.588Z,99.9
2017-07-03T00:55:22.200Z,99.99
2017-07-03T00:55:50.818Z,99.99
2017-07-03T00:56:19.420Z,99.99
2017-07-03T00:56:47.925Z,99.99
2017-07-03T00:57:16.531Z,99.99
2017-07-03T00:57:45.037Z,99.99
2017-07-03T00:58:13.540Z,99.99
2017-07-03T00:58:41.946Z,99.99
2017-07-03T00:59:10.476Z,99.99
2017-07-03T00:59:38.990Z,99.99
2017-07-03T01:00:07.600Z,99.99
2017-07-03T01:00:36.221Z,99.99
2017-07-03T01:01:04.818Z,99.99
2017-07-03T01:01:33.425Z,99.99
2017-07-03T01:02:02.023Z,99.99
2017-07-03T01:02:30.623Z,99.99
2017-07-03T01:02:59.252Z,99.99
2017-07-03T01:03:27.875Z,99.99
2017-07-03T01:03:56.388Z,99.99
2017-07-03T01:04:25.028Z,99.99
2017-07-03T01:04:53.616Z,99.99
2017-07-03T01:05:22.208Z,99.99
2017-07-03T01:05:50.721Z,99.99
2017-07-03T01:06:19.349Z,99.99
2017-07-03T01:06:47.957Z,99.99
2017-07-03T01:07:16.481Z,99.99
2017-07-03T01:07:44.972Z,99.99
2017-07-03T01:08:13.597Z,99.99
2017-07-03T01:08:42.111Z,99.99
2017-07-03T01:09:10.593Z,99.99
2017-07-03T01:09:39.112Z,99.99
2017-07-03T01:10:07.713Z,99.99
2017-07-03T01:10:36.313Z,99.99
2017-07-03T01:11:04.918Z,99.99
2017-07-03T01:11:33.508Z,99.99
2017-07-03T01:12:02.121Z,99.99
2017-07-03T01:12:30.722Z,99.99
2017-07-03T01:12:59.355Z,99.99
2017-07-03T01:13:27.786Z,99.99
2017-07-03T01:13:56.319Z,99.99
2017-07-03T01:14:24.949Z,99.99
2017-07-03T01:14:53.558Z,99.99
2017-07-03T01:15:22.150Z,99.99
2017-07-03T01:15:50.597Z,99.99
2017-07-03T01:16:19.215Z,99.99
2017-07-03T01:16:47.718Z,99.99
2017-07-03T01:17:16.347Z,99.99
2017-07-03T01:17:44.953Z,99.99
2017-07-03T01:18:13.551Z,99.99
2017-07-03T01:18:44.883Z,99.99
2017-07-03T01:19:13.398Z,99.99
2017-07-03T01:19:41.974Z,99.99
2017-07-03T01:20:10.468Z,99.99
2017-07-03T01:20:38.968Z,99.99
2017-07-03T01:21:07.582Z,99.99
2017-07-03T01:21:36.186Z,99.99
2017-07-03T01:22:04.791Z,99.99
2017-07-03T01:22:33.390Z,99.99
2017-07-03T01:23:02.011Z,99.99
2017-07-03T01:23:30.509Z,99.99
2017-07-03T01:23:59.112Z,99.99
2017-07-03T01:24:27.812Z,99.99
2017-07-03T01:24:56.418Z,99.99
2017-07-03T01:25:25.015Z,99.99
2017-07-03T01:25:53.640Z,99.99
2017-07-03T01:26:22.261Z,99.99
2017-07-03T01:26:50.893Z,99.99
2017-07-03T01:27:19.525Z,99.99
2017-07-03T01:27:48.150Z,99.99
2017-07-03T01:28:16.750Z,99.99
2017-07-03T01:28:45.336Z,99.99
2017-07-03T01:29:13.952Z,99.99
2017-07-03T01:29:42.470Z,99.99
2017-07-03T01:30:11.082Z,99.99
2017-07-03T01:30:39.612Z,99.99
2017-07-03T01:31:08.147Z,99.99
2017-07-03T01:31:36.732Z,99.99
2017-07-03T01:32:05.338Z,99.99
2017-07-03T01:32:33.938Z,99.99
2017-07-03T01:33:02.544Z,99.99
2017-07-03T01:33:31.079Z,99.99
2017-07-03T01:33:59.671Z,99.99
2017-07-03T01:34:28.171Z,99.99
2017-07-03T01:34:56.798Z,99.99
2017-07-03T01:35:25.308Z,99.99
2017-07-03T01:35:53.733Z,99.99
2017-07-03T01:36:22.361Z,99.99
2017-07-03T01:36:51.008Z,99.99
2017-07-03T01:37:19.627Z,99.99
2017-07-03T01:37:48.250Z,99.99
2017-07-03T01:38:16.874Z,99.99
2017-07-03T01:38:45.531Z,99.99
2017-07-03T01:39:14.099Z,99.99
2017-07-03T01:39:42.712Z,99.99
2017-07-03T01:40:11.336Z,99.99
2017-07-03T01:40:39.943Z,99.99
2017-07-03T01:41:08.572Z,99.99
2017-07-03T01:41:37.094Z,99.99
2017-07-03T01:42:16.758Z,99.99
2017-07-03T01:42:45.198Z,99.99
2017-07-03T01:43:13.802Z,99.99
2017-07-03T01:43:42.387Z,99.99
2017-07-03T01:44:11.011Z,99.99
2017-07-03T01:44:39.529Z,99.99
2017-07-03T01:45:07.953Z,99.99
2017-07-03T01:45:36.451Z,99.99
2017-07-03T01:46:05.052Z,99.99
2017-07-03T01:46:33.588Z,99.99
2017-07-03T01:47:02.203Z,99.99
2017-07-03T01:47:30.787Z,99.99
2017-07-03T01:47:59.424Z,99.99
2017-07-03T01:48:28.039Z,99.99
2017-07-03T01:48:56.635Z,99.99
2017-07-03T01:49:25.251Z,99.99
2017-07-03T01:49:53.873Z,99.99
2017-07-03T01:50:22.477Z,99.99
2017-07-03T01:50:51.101Z,99.99
2017-07-03T01:51:19.684Z,99.99
2017-07-03T01:51:48.311Z,99.99
2017-07-03T01:52:16.895Z,99.99
2017-07-03T01:52:45.507Z,99.99
2017-07-03T01:53:14.115Z,99.99
2017-07-03T01:53:42.555Z,99.99
2017-07-03T01:54:11.164Z,99.99
2017-07-03T01:54:39.792Z,99.99
2017-07-03T01:55:08.316Z,99.9
2017-07-03T01:55:36.929Z,99.33
2017-07-03T01:56:05.539Z,98.85
2017-07-03T01:56:34.147Z,99.43
2017-07-03T01:57:02.750Z,99.9
2017-07-03T01:57:31.365Z,99.99
2017-07-03T01:57:59.995Z,99.99
2017-07-03T01:58:28.627Z,99.99
2017-07-03T01:58:57.224Z,99.9
2017-07-03T01:59:25.811Z,99.99
2017-07-03T01:59:54.226Z,99.99
2017-07-03T02:00:22.840Z,99.9
2017-07-03T02:00:51.419Z,99.71
2017-07-03T02:01:20.008Z,99.99
2017-07-03T02:01:48.512Z,99.99
2017-07-03T02:02:17.140Z,99.99
2017-07-03T02:02:45.745Z,99.99
2017-07-03T02:03:14.348Z,99.9
2017-07-03T02:03:42.969Z,99.99
2017-07-03T02:04:11.586Z,99.99
2017-07-03T02:04:40.040Z,99.99
2017-07-03T02:05:08.653Z,99.99
2017-07-03T02:05:37.254Z,99.99
2017-07-03T02:06:05.868Z,99.99
2017-07-03T02:06:34.342Z,99.99
2017-07-03T02:07:02.952Z,99.99
2017-07-03T02:07:31.480Z,99.99
2017-07-03T02:08:00.107Z,99.99
2017-07-03T02:08:28.724Z,99.99
2017-07-03T02:08:57.299Z,99.99
2017-07-03T02:09:25.925Z,99.99
2017-07-03T02:09:54.412Z,99.99
2017-07-03T02:10:23.024Z,99.99
2017-07-03T02:10:51.669Z,99.99
2017-07-03T02:11:20.190Z,99.99
2017-07-03T02:11:48.780Z,99.99
2017-07-03T02:12:17.406Z,99.99
2017-07-03T02:12:45.953Z,99.99
2017-07-03T02:13:14.543Z,99.99
2017-07-03T02:13:43.157Z,99.99
2017-07-03T02:14:11.765Z,99.99
2017-07-03T02:14:40.261Z,99.99
2017-07-03T02:15:08.774Z,99.99
2017-07-03T02:15:37.377Z,99.99
2017-07-03T02:16:06.009Z,99.99
2017-07-03T02:16:34.618Z,99.99
2017-07-03T02:17:03.229Z,99.99
2017-07-03T02:17:31.836Z,99.99
2017-07-03T02:18:00.415Z,99.99
2017-07-03T02:18:29.014Z,99.99
2017-07-03T02:18:57.517Z,99.99
2017-07-03T02:19:26.136Z,99.99
2017-07-03T02:19:54.745Z,99.99
2017-07-03T02:20:23.367Z,99.99
2017-07-03T02:20:51.995Z,99.99
2017-07-03T02:21:20.612Z,99.99
2017-07-03T02:21:49.195Z,99.99
2017-07-03T02:22:17.718Z,99.99
2017-07-03T02:22:46.331Z,99.99
2017-07-03T02:23:14.852Z,99.99
2017-07-03T02:23:43.448Z,99.99
2017-07-03T02:24:12.066Z,99.99
2017-07-03T02:24:40.678Z,99.99
2017-07-03T02:25:09.298Z,99.99
2017-07-03T02:25:37.920Z,99.99
2017-07-03T02:26:06.505Z,99.99
2017-07-03T02:26:35.116Z,99.99
2017-07-03T02:27:03.742Z,99.99
2017-07-03T02:27:32.260Z,99.99
2017-07-03T02:28:00.776Z,99.99
2017-07-03T02:28:29.426Z,99.99
2017-07-03T02:28:58.056Z,99.99
2017-07-03T02:29:26.657Z,99.99
2017-07-03T02:29:55.267Z,99.99
2017-07-03T02:30:23.859Z,99.99
2017-07-03T02:30:52.476Z,99.99
2017-07-03T02:31:21.067Z,99.99
2017-07-03T02:31:49.705Z,99.99
2017-07-03T02:32:18.210Z,99.99
2017-07-03T02:32:46.725Z,99.99
2017-07-03T02:33:15.316Z,99.99
2017-07-03T02:33:43.939Z,99.99
2017-07-03T02:34:12.539Z,99.99
2017-07-03T02:34:41.162Z,99.99
2017-07-03T02:35:09.762Z,99.99
2017-07-03T02:35:38.356Z,99.99
2017-07-03T02:36:06.975Z,99.99
2017-07-03T02:36:35.591Z,99.8
2017-07-03T02:37:04.205Z,99.99
2017-07-03T02:37:32.787Z,99.99
2017-07-03T02:38:01.382Z,99.99
2017-07-03T02:38:29.990Z,99.99
2017-07-03T02:38:58.597Z,99.99
2017-07-03T02:39:27.237Z,99.99
2017-07-03T02:39:55.845Z,99.99
2017-07-03T02:40:24.471Z,99.99
2017-07-03T02:40:53.010Z,99.9
2017-07-03T02:41:21.594Z,99.99
2017-07-03T02:41:50.189Z,99.71
2017-07-03T02:42:18.811Z,99.71
2017-07-03T02:42:47.340Z,99.52
2017-07-03T02:43:15.972Z,99.99
2017-07-03T02:43:44.583Z,99.8
2017-07-03T02:44:13.076Z,99.62
2017-07-03T02:44:41.699Z,99.99
2017-07-03T02:45:10.298Z,99.99
2017-07-03T02:45:38.881Z,99.9
2017-07-03T02:46:07.409Z,99.9
2017-07-03T02:46:50.431Z,99.9
2017-07-03T02:47:33.470Z,99.33
2017-07-03T02:48:16.935Z,99.99
2017-07-03T02:48:45.462Z,99.9
2017-07-03T02:49:14.051Z,99.99
2017-07-03T02:49:42.673Z,99.99
2017-07-03T02:50:11.290Z,99.71
2017-07-03T02:50:39.836Z,99.71
2017-07-03T02:51:08.461Z,99.99
2017-07-03T02:51:37.103Z,99.99
2017-07-03T02:52:05.705Z,99.99
2017-07-03T02:52:34.189Z,99.99
2017-07-03T02:53:02.797Z,99.99
2017-07-03T02:53:31.388Z,99.99
2017-07-03T02:53:59.994Z,99.99
2017-07-03T02:54:28.608Z,99.99
2017-07-03T02:54:57.202Z,99.99
2017-07-03T02:55:25.691Z,99.99
2017-07-03T02:55:54.294Z,99.99
2017-07-03T02:56:22.894Z,99.99
2017-07-03T02:56:51.462Z,99.99
2017-07-03T02:57:20.081Z,99.99
2017-07-03T02:57:48.669Z,99.99
2017-07-03T02:58:17.268Z,99.99
2017-07-03T02:58:45.882Z,99.99
2017-07-03T02:59:14.488Z,99.99
2017-07-03T02:59:43.117Z,99.99
2017-07-03T03:00:11.693Z,99.99
2017-07-03T03:00:40.291Z,99.99
2017-07-03T03:01:08.917Z,99.99
2017-07-03T03:01:37.523Z,99.99
2017-07-03T03:02:06.138Z,99.99
2017-07-03T03:02:34.576Z,99.99
2017-07-03T03:03:03.101Z,99.99
2017-07-03T03:03:31.693Z,99.99
2017-07-03T03:04:00.333Z,99.99
2017-07-03T03:04:28.938Z,99.99
2017-07-03T03:04:57.541Z,99.99
2017-07-03T03:05:26.110Z,99.99
2017-07-03T03:05:54.702Z,99.99
2017-07-03T03:06:23.286Z,99.99
2017-07-03T03:06:51.884Z,99.99
2017-07-03T03:07:20.374Z,99.99
2017-07-03T03:07:49.000Z,99.99
2017-07-03T03:08:17.493Z,99.99
2017-07-03T03:08:46.036Z,99.99
2017-07-03T03:09:14.636Z,99.99
2017-07-03T03:09:43.242Z,99.99
2017-07-03T03:10:11.774Z,99.99
2017-07-03T03:10:40.391Z,99.99
2017-07-03T03:11:08.999Z,99.99
2017-07-03T03:11:37.528Z,99.99
2017-07-03T03:12:06.025Z,99.99
2017-07-03T03:12:34.627Z,99.99
2017-07-03T03:13:03.227Z,99.99
2017-07-03T03:13:31.765Z,99.99
2017-07-03T03:14:00.384Z,99.99
2017-07-03T03:14:28.934Z,99.99
2017-07-03T03:14:57.444Z,99.99
2017-07-03T03:15:26.023Z,99.99
2017-07-03T03:15:54.629Z,99.99
2017-07-03T03:16:23.151Z,99.99
2017-07-03T03:16:51.796Z,99.99
2017-07-03T03:17:20.385Z,99.99
2017-07-03T03:17:48.981Z,99.99
2017-07-03T03:18:17.595Z,99.99
2017-07-03T03:18:46.199Z,99.99
2017-07-03T03:19:14.734Z,99.99
2017-07-03T03:19:43.331Z,99.99
2017-07-03T03:20:11.950Z,99.99
2017-07-03T03:20:40.565Z,99.99
2017-07-03T03:21:09.175Z,99.99
2017-07-03T03:21:37.804Z,99.99
2017-07-03T03:22:06.422Z,99.99
2017-07-03T03:22:34.995Z,99.99
2017-07-03T03:23:03.605Z,99.99
2017-07-03T03:23:32.212Z,99.99
2017-07-03T03:24:00.816Z,99.99
2017-07-03T03:24:29.429Z,99.99
2017-07-03T03:24:57.938Z,99.99
2017-07-03T03:25:26.533Z,99.99
2017-07-03T03:25:55.153Z,99.99
2017-07-03T03:26:23.771Z,99.99
2017-07-03T03:26:52.317Z,99.99
2017-07-03T03:27:20.929Z,99.99
2017-07-03T03:27:49.535Z,99.99
2017-07-03T03:28:18.136Z,99.99
2017-07-03T03:28:46.748Z,99.99
2017-07-03T03:29:15.364Z,99.99
2017-07-03T03:29:43.969Z,99.99
2017-07-03T03:30:12.600Z,99.99
2017-07-03T03:30:41.211Z,99.99
2017-07-03T03:31:09.816Z,99.99
2017-07-03T03:31:38.425Z,99.99
2017-07-03T03:32:06.872Z,99.99
2017-07-03T03:32:35.498Z,99.99
2017-07-03T03:33:04.113Z,99.99
2017-07-03T03:33:32.683Z,99.99
2017-07-03T03:34:01.282Z,99.99
2017-07-03T03:34:29.792Z,99.99
2017-07-03T03:34:58.385Z,99.99
2017-07-03T03:35:27.012Z,99.99
2017-07-03T03:35:55.561Z,99.99
2017-07-03T03:36:24.162Z,99.99
2017-07-03T03:36:52.706Z,99.99
2017-07-03T03:37:21.311Z,99.99
2017-07-03T03:37:49.928Z,99.99
2017-07-03T03:38:18.555Z,99.99
2017-07-03T03:38:47.183Z,99.99
2017-07-03T03:39:15.766Z,99.99
2017-07-03T03:39:44.285Z,99.99
2017-07-03T03:40:12.914Z,99.99
2017-07-03T03:40:41.527Z,99.99
2017-07-03T03:41:10.052Z,99.99
2017-07-03T03:41:38.623Z,99.99
2017-07-03T03:42:07.137Z,99.99
2017-07-03T03:42:35.756Z,99.99
2017-07-03T03:43:04.378Z,99.99
2017-07-03T03:43:32.979Z,99.99
2017-07-03T03:44:01.596Z,99.99
2017-07-03T03:44:30.218Z,99.99
2017-07-03T03:44:58.816Z,99.99
2017-07-03T03:45:27.446Z,99.99
2017-07-03T03:45:56.034Z,99.99
2017-07-03T03:46:24.663Z,99.99
2017-07-03T03:46:53.290Z,99.99
2017-07-03T03:47:21.896Z,99.99
2017-07-03T03:47:50.518Z,99.99
2017-07-03T03:48:19.119Z,99.99
2017-07-03T03:48:47.616Z,99.99
2017-07-03T03:49:16.207Z,99.99
2017-07-03T03:49:44.817Z,99.99
2017-07-03T03:50:13.413Z,99.99
2017-07-03T03:50:42.037Z,99.99
2017-07-03T03:51:10.680Z,99.99
2017-07-03T03:51:39.275Z,99.99
2017-07-03T03:52:07.803Z,99.99
2017-07-03T03:52:36.327Z,99.99
2017-07-03T03:53:04.921Z,99.99
2017-07-03T03:53:33.517Z,99.99
2017-07-03T03:54:02.094Z,99.99
2017-07-03T03:54:30.702Z,99.99
2017-07-03T03:54:59.336Z,99.99
2017-07-03T03:55:27.957Z,99.99
2017-07-03T03:55:56.553Z,99.99
2017-07-03T03:56:25.171Z,99.99
2017-07-03T03:56:53.780Z,99.99
2017-07-03T03:57:22.296Z,99.99
2017-07-03T03:57:50.914Z,99.99
2017-07-03T03:58:19.516Z,99.99
2017-07-03T03:58:48.049Z,99.99
2017-07-03T03:59:16.665Z,99.99
2017-07-03T03:59:45.275Z,99.99
2017-07-03T04:00:13.895Z,99.99
2017-07-03T04:00:42.413Z,99.99
2017-07-03T04:01:11.013Z,99.99
2017-07-03T04:01:39.639Z,99.99
2017-07-03T04:02:08.165Z,99.99
2017-07-03T04:02:36.773Z,99.99
2017-07-03T04:03:05.390Z,99.99
2017-07-03T04:03:33.987Z,99.99
2017-07-03T04:04:02.549Z,99.99
2017-07-03T04:04:31.151Z,99.99
2017-07-03T04:04:59.759Z,99.99
2017-07-03T04:05:28.370Z,99.99
2017-07-03T04:05:56.985Z,99.99
2017-07-03T04:06:25.511Z,99.99
2017-07-03T04:06:54.219Z,99.99
2017-07-03T04:07:22.821Z,99.99
2017-07-03T04:07:51.430Z,99.99
2017-07-03T04:08:20.014Z,99.99
2017-07-03T04:08:48.545Z,99.99
2017-07-03T04:09:17.162Z,99.99
2017-07-03T04:09:45.771Z,99.99
2017-07-03T04:10:14.273Z,99.99
2017-07-03T04:10:42.775Z,99.99
2017-07-03T04:11:11.405Z,99.99
2017-07-03T04:11:39.917Z,99.99
2017-07-03T04:12:08.521Z,99.99
2017-07-03T04:12:37.112Z,99.99
2017-07-03T04:13:05.728Z,99.99
2017-07-03T04:13:34.333Z,99.99
2017-07-03T04:14:02.931Z,99.99
2017-07-03T04:14:31.458Z,99.99
2017-07-03T04:15:00.183Z,99.99
2017-07-03T04:15:28.816Z,99.99
2017-07-03T04:15:57.434Z,99.99
2017-07-03T04:16:26.033Z,99.99
2017-07-03T04:16:54.555Z,99.99
2017-07-03T04:17:23.166Z,99.99
2017-07-03T04:17:51.769Z,99.99
2017-07-03T04:18:20.292Z,99.99
2017-07-03T04:18:48.896Z,99.99
2017-07-03T04:19:17.527Z,99.99
2017-07-03T04:19:46.135Z,99.99
2017-07-03T04:20:14.735Z,99.99
2017-07-03T04:20:43.246Z,99.99
2017-07-03T04:21:11.863Z,99.99
2017-07-03T04:21:40.492Z,99.99
2017-07-03T04:22:09.111Z,99.99
2017-07-03T04:22:37.708Z,99.99
2017-07-03T04:23:06.322Z,99.99
2017-07-03T04:23:34.945Z,99.99
2017-07-03T04:24:03.557Z,99.99
2017-07-03T04:24:32.181Z,99.99
2017-07-03T04:25:00.811Z,99.99
2017-07-03T04:25:29.414Z,99.99
2017-07-03T04:25:58.050Z,99.99
2017-07-03T04:26:26.664Z,99.99
2017-07-03T04:26:55.260Z,99.99
2017-07-03T04:27:23.749Z,99.99
2017-07-03T04:27:52.357Z,99.99
2017-07-03T04:28:20.981Z,99.99
2017-07-03T04:28:49.598Z,99.99
2017-07-03T04:29:18.008Z,99.99
2017-07-03T04:29:46.601Z,99.99
2017-07-03T04:30:15.119Z,99.99
2017-07-03T04:30:43.623Z,99.99
2017-07-03T04:31:12.258Z,99.99
2017-07-03T04:31:40.757Z,99.99
2017-07-03T04:32:09.380Z,99.99
2017-07-03T04:32:37.985Z,99.99
2017-07-03T04:33:06.592Z,99.99
2017-07-03T04:33:35.127Z,99.99
2017-07-03T04:34:03.693Z,99.99
2017-07-03T04:34:32.239Z,99.99
2017-07-03T04:35:00.821Z,99.99
2017-07-03T04:35:29.437Z,99.99
2017-07-03T04:35:58.061Z,99.99
2017-07-03T04:36:26.501Z,99.99
2017-07-03T04:36:55.095Z,99.99
2017-07-03T04:37:23.791Z,99.99
2017-07-03T04:37:52.665Z,99.99
2017-07-03T04:38:21.249Z,99.99
2017-07-03T04:38:49.866Z,99.99
2017-07-03T04:39:18.494Z,99.99
2017-07-03T04:39:47.102Z,99.99
2017-07-03T04:40:15.692Z,99.99
2017-07-03T04:40:44.299Z,99.99
2017-07-03T04:41:12.938Z,99.99
2017-07-03T04:41:41.525Z,99.99
2017-07-03T04:42:10.142Z,99.99
2017-07-03T04:42:38.804Z,99.99
2017-07-03T04:43:07.328Z,99.99
2017-07-03T04:43:35.947Z,99.99
2017-07-03T04:44:04.549Z,99.99
2017-07-03T04:44:33.163Z,99.99
2017-07-03T04:45:01.735Z,99.99
2017-07-03T04:45:30.246Z,99.99
2017-07-03T04:45:58.775Z,99.99
2017-07-03T04:46:27.379Z,99.99
2017-07-03T04:46:55.911Z,99.99
2017-07-03T04:47:24.546Z,99.99
2017-07-03T04:47:53.152Z,99.99
2017-07-03T04:48:21.775Z,99.99
2017-07-03T04:48:50.315Z,99.99
2017-07-03T04:49:18.923Z,99.99
2017-07-03T04:49:47.531Z,99.99
2017-07-03T04:50:16.071Z,99.99
2017-07-03T04:50:44.570Z,99.99
2017-07-03T04:51:13.174Z,99.99
2017-07-03T04:51:41.736Z,99.99
2017-07-03T04:52:10.274Z,99.99
2017-07-03T04:52:38.839Z,99.99
2017-07-03T04:53:07.368Z,99.99
2017-07-03T04:53:35.949Z,99.99
2017-07-03T04:54:04.550Z,99.99
2017-07-03T04:54:33.075Z,99.99
2017-07-03T04:55:01.690Z,99.99
2017-07-03T04:55:30.310Z,99.99
2017-07-03T04:55:58.837Z,99.99
2017-07-03T04:56:27.436Z,99.99
2017-07-03T04:56:56.214Z,99.99
2017-07-03T04:57:24.738Z,99.99
2017-07-03T04:57:53.272Z,99.99
2017-07-03T04:58:21.911Z,99.99
2017-07-03T04:58:50.538Z,99.99
2017-07-03T04:59:19.178Z,99.99
2017-07-03T04:59:47.770Z,99.99
2017-07-03T05:00:16.381Z,99.99
2017-07-03T05:00:44.914Z,99.99
2017-07-03T05:01:13.419Z,99.99
2017-07-03T05:01:42.036Z,99.99
2017-07-03T05:02:10.554Z,99.99
2017-07-03T05:02:39.175Z,99.99
2017-07-03T05:03:07.694Z,99.99
2017-07-03T05:03:36.315Z,99.99
2017-07-03T05:04:04.927Z,99.99
2017-07-03T05:04:33.324Z,99.99
2017-07-03T05:05:01.909Z,99.99
2017-07-03T05:05:30.520Z,99.99
2017-07-03T05:05:59.011Z,99.99
2017-07-03T05:06:27.649Z,99.99
2017-07-03T05:06:56.234Z,99.99
2017-07-03T05:07:24.724Z,99.99
2017-07-03T05:07:53.240Z,99.99
2017-07-03T05:08:21.855Z,99.99
2017-07-03T05:08:50.379Z,99.99
2017-07-03T05:09:19.001Z,99.99
2017-07-03T05:09:47.603Z,99.99
2017-07-03T05:10:16.181Z,99.99
2017-07-03T05:10:44.693Z,99.99
2017-07-03T05:11:13.334Z,99.99
2017-07-03T05:11:41.924Z,99.99
2017-07-03T05:12:10.514Z,99.99
2017-07-03T05:12:39.121Z,99.99
2017-07-03T05:13:07.750Z,99.99
2017-07-03T05:13:36.386Z,99.99
2017-07-03T05:14:04.992Z,99.99
2017-07-03T05:14:33.511Z,99.99
2017-07-03T05:15:02.107Z,99.99
2017-07-03T05:15:30.715Z,99.99
2017-07-03T05:15:59.233Z,99.99
2017-07-03T05:16:27.841Z,99.99
2017-07-03T05:16:56.623Z,99.99
2017-07-03T05:17:25.225Z,99.99
2017-07-03T05:17:53.734Z,99.99
2017-07-03T05:18:22.317Z,99.99
2017-07-03T05:18:50.917Z,99.99
2017-07-03T05:19:19.440Z,99.99
2017-07-03T05:19:47.958Z,99.99
2017-07-03T05:20:16.486Z,99.99
2017-07-03T05:20:45.084Z,99.99
2017-07-03T05:21:13.678Z,99.99
2017-07-03T05:21:42.333Z,99.99
2017-07-03T05:22:10.796Z,99.99
2017-07-03T05:22:39.440Z,99.99
2017-07-03T05:23:07.955Z,99.99
2017-07-03T05:23:36.548Z,99.99
2017-07-03T05:24:05.142Z,99.99
2017-07-03T05:24:33.749Z,99.99
2017-07-03T05:25:02.355Z,99.99
2017-07-03T05:25:30.970Z,99.99
2017-07-03T05:25:59.581Z,99.99
2017-07-03T05:26:28.086Z,99.99
2017-07-03T05:26:56.593Z,99.99
2017-07-03T05:27:25.224Z,99.99
2017-07-03T05:27:53.759Z,99.99
2017-07-03T05:28:22.284Z,99.99
2017-07-03T05:28:50.883Z,99.99
2017-07-03T05:29:19.523Z,99.99
2017-07-03T05:29:48.147Z,99.99
2017-07-03T05:30:16.749Z,99.99
2017-07-03T05:30:45.274Z,99.99
2017-07-03T05:31:13.873Z,99.99
2017-07-03T05:31:42.479Z,99.99
2017-07-03T05:32:11.069Z,99.99
2017-07-03T05:32:39.678Z,99.99
2017-07-03T05:33:08.273Z,99.99
2017-07-03T05:33:36.888Z,99.99
2017-07-03T05:34:05.478Z,99.99
2017-07-03T05:34:33.974Z,99.99
2017-07-03T05:35:02.590Z,99.99
2017-07-03T05:35:31.196Z,99.99
2017-07-03T05:35:59.704Z,99.99
2017-07-03T05:36:28.325Z,99.99
2017-07-03T05:36:56.818Z,99.99
2017-07-03T05:37:25.399Z,99.99
2017-07-03T05:37:53.988Z,99.99
2017-07-03T05:38:22.512Z,99.99
2017-07-03T05:38:51.120Z,99.99
2017-07-03T05:39:19.711Z,99.99
2017-07-03T05:39:48.210Z,99.99
2017-07-03T05:40:16.822Z,99.99
2017-07-03T05:40:45.439Z,99.99
2017-07-03T05:41:14.046Z,99.99
2017-07-03T05:41:42.674Z,99.99
2017-07-03T05:42:11.284Z,99.99
2017-07-03T05:42:39.909Z,99.99
2017-07-03T05:43:08.506Z,99.99
2017-07-03T05:43:37.089Z,99.99
2017-07-03T05:44:05.677Z,99.99
2017-07-03T05:44:34.301Z,99.99
2017-07-03T05:45:02.903Z,99.99
2017-07-03T05:45:31.506Z,99.99
2017-07-03T05:46:00.105Z,99.99
2017-07-03T05:46:28.681Z,99.99
2017-07-03T05:46:57.289Z,99.99
2017-07-03T05:47:25.894Z,99.99
2017-07-03T05:47:54.500Z,99.99
2017-07-03T05:48:23.099Z,99.99
2017-07-03T05:48:51.714Z,99.99
2017-07-03T05:49:20.309Z,99.99
2017-07-03T05:49:48.937Z,99.99
2017-07-03T05:50:17.536Z,99.99
2017-07-03T05:50:46.133Z,99.99
2017-07-03T05:51:14.742Z,99.99
2017-07-03T05:51:43.405Z,99.99
2017-07-03T05:52:12.029Z,99.99
2017-07-03T05:52:40.636Z,99.99
2017-07-03T05:53:09.243Z,99.99
2017-07-03T05:53:37.832Z,99.99
2017-07-03T05:54:06.250Z,99.99
2017-07-03T05:54:34.864Z,99.99
2017-07-03T05:55:03.460Z,99.99
2017-07-03T05:55:31.993Z,99.99
2017-07-03T05:56:00.565Z,99.99
2017-07-03T05:56:28.961Z,99.99
2017-07-03T05:56:57.581Z,99.99
2017-07-03T05:57:26.177Z,99.99
2017-07-03T05:57:54.805Z,99.99
2017-07-03T05:58:23.417Z,99.99
2017-07-03T05:58:52.024Z,99.99
2017-07-03T05:59:20.627Z,99.99
2017-07-03T05:59:49.238Z,99.99
2017-07-03T06:00:17.661Z,99.99
2017-07-03T06:00:46.148Z,99.99
2017-07-03T06:01:14.744Z,99.99
2017-07-03T06:01:43.352Z,99.99
2017-07-03T06:02:11.945Z,99.99
2017-07-03T06:02:40.562Z,99.99
2017-07-03T06:03:09.191Z,99.99
2017-07-03T06:03:37.812Z,99.99
2017-07-03T06:04:06.445Z,99.99
2017-07-03T06:04:34.942Z,99.99
2017-07-03T06:05:03.548Z,99.99
2017-07-03T06:05:32.154Z,99.99
2017-07-03T06:06:00.674Z,99.99
2017-07-03T06:06:29.200Z,99.99
2017-07-03T06:06:57.801Z,99.99
2017-07-03T06:07:26.480Z,99.99
2017-07-03T06:07:55.097Z,99.99
2017-07-03T06:08:23.686Z,99.99
2017-07-03T06:08:52.282Z,99.99
2017-07-03T06:09:20.909Z,99.99